createdAt,value
2023-09-06T00:27:04.121Z,18
2023-09-06T00:56:59.847Z,18
2023-09-06T01:27:01.510Z,18
2023-09-06T01:56:58.412Z,16
2023-09-06T02:26:59.708Z,18
2023-09-06T02:56:56.301Z,19
2023-09-06T03:27:01.352Z,18
2023-09-06T03:56:58.692Z,19
2023-09-06T04:26:52.746Z,18
2023-09-06T04:56:57.246Z,19
2023-09-06T05:26:57.467Z,17
2023-09-06T05:56:59.138Z,20
2023-09-06T06:28:06.094Z,21
2023-09-06T06:58:04.365Z,20
2023-09-06T07:28:08.925Z,19
2023-09-06T07:58:11.777Z,20
2023-09-06T08:59:30.331Z,22
2023-09-06T09:29:28.016Z,22
2023-09-06T09:59:28.017Z,22
2023-09-06T10:30:40.387Z,22
2023-09-06T11:00:39.442Z,22
2023-09-06T11:30:44.291Z,22
2023-09-06T12:00:48.695Z,24
2023-09-06T12:30:55.309Z,24
2023-09-06T13:02:06.394Z,24
2023-09-06T13:32:02.716Z,24
2023-09-06T14:02:10.912Z,24
2023-09-06T14:32:11.412Z,24
2023-09-06T15:02:15.775Z,24
2023-09-06T15:32:20.692Z,23
2023-09-06T16:02:23.285Z,24
2023-09-06T16:32:27.482Z,24
2023-09-06T17:02:21.184Z,24
2023-09-06T17:32:19.032Z,24
2023-09-06T18:32:16.207Z,23
2023-09-06T19:02:10.854Z,23
2023-09-06T19:32:06.970Z,21
2023-09-06T20:02:07.901Z,21
2023-09-06T20:32:03.820Z,21
2023-09-06T21:02:11.078Z,20
2023-09-06T21:32:06.922Z,20
2023-09-06T22:02:11.999Z,20
2023-09-06T22:33:19.316Z,21
2023-09-06T23:03:12.616Z,21
2023-09-06T23:33:05.903Z,20
